createdAt,value
2022-12-18T00:00:06.181Z,30.40
2022-12-18T00:02:34.229Z,38.80
2022-12-18T00:05:01.965Z,44.00
2022-12-18T00:07:29.538Z,35.50
2022-12-18T00:09:57.150Z,41.40
2022-12-18T00:12:24.688Z,29.00
2022-12-18T00:14:52.331Z,39.50
2022-12-18T00:17:19.928Z,34.40
2022-12-18T00:19:48.241Z,34.10
2022-12-18T00:22:16.761Z,38.40
2022-12-18T00:24:44.372Z,35.60
2022-12-18T00:27:11.898Z,34.10
2022-12-18T00:29:39.453Z,34.20
2022-12-18T00:32:06.960Z,26.70
2022-12-18T00:34:34.555Z,36.30
2022-12-18T00:37:02.109Z,36.50
2022-12-18T00:39:30.299Z,41.90
2022-12-18T00:41:57.889Z,30.10
2022-12-18T00:44:25.481Z,34.20
2022-12-18T00:46:53.018Z,33.80
2022-12-18T00:49:20.916Z,37.00
2022-12-18T00:51:49.649Z,35.20
2022-12-18T00:54:17.634Z,42.20
2022-12-18T00:56:49.079Z,35.00
2022-12-18T00:59:18.750Z,31.20
2022-12-18T01:01:47.934Z,31.60
2022-12-18T01:04:16.570Z,35.60
2022-12-18T01:06:44.586Z,38.50
2022-12-18T01:09:12.374Z,34.90
2022-12-18T01:11:40.702Z,39.50
2022-12-18T01:14:08.325Z,36.50
2022-12-18T01:16:36.019Z,35.80
2022-12-18T01:19:03.778Z,32.90
2022-12-18T01:21:31.521Z,37.90
2022-12-18T01:23:59.481Z,40.40
2022-12-18T01:26:27.820Z,42.20
2022-12-18T01:28:57.339Z,42.30
2022-12-18T01:31:28.363Z,35.70
2022-12-18T01:33:57.394Z,40.70
2022-12-18T01:36:27.771Z,29.20
2022-12-18T01:38:56.579Z,33.80
2022-12-18T01:41:26.893Z,36.90
2022-12-18T01:43:59.387Z,33.00
2022-12-18T01:46:28.181Z,37.30
2022-12-18T01:49:02.078Z,46.10
2022-12-18T01:51:31.742Z,36.80
2022-12-18T01:54:00.301Z,39.00
2022-12-18T01:56:28.055Z,29.50
2022-12-18T01:59:06.145Z,37.20
2022-12-18T02:01:36.356Z,33.30
2022-12-18T02:04:24.808Z,34.70
2022-12-18T02:07:01.572Z,34.20
2022-12-18T02:09:38.096Z,35.00
2022-12-18T02:12:16.784Z,41.70
2022-12-18T02:14:56.531Z,39.60
2022-12-18T02:17:35.446Z,39.70
2022-12-18T02:20:14.140Z,44.80
2022-12-18T02:22:59.699Z,48.70
2022-12-18T02:25:33.702Z,43.00
2022-12-18T02:28:06.205Z,37.20
2022-12-18T02:30:37.153Z,28.90
2022-12-18T02:33:09.499Z,35.50
2022-12-18T02:35:38.403Z,39.20
2022-12-18T02:38:07.380Z,30.90
2022-12-18T02:40:36.847Z,36.20
2022-12-18T02:43:13.793Z,56.10
2022-12-18T02:45:54.263Z,49.70
2022-12-18T02:48:27.082Z,37.40
2022-12-18T02:51:15.429Z,33.20
2022-12-18T02:53:59.027Z,38.10
2022-12-18T02:56:36.736Z,38.10
2022-12-18T02:59:17.152Z,27.70
2022-12-18T03:02:00.325Z,25.60
2022-12-18T03:07:06.724Z,32.00
2022-12-18T03:09:39.345Z,39.30
2022-12-18T03:12:35.555Z,59.30
2022-12-18T03:15:22.449Z,42.90
2022-12-18T03:17:56.126Z,45.30
2022-12-18T03:20:26.911Z,43.00
2022-12-18T03:25:33.159Z,48.60
2022-12-18T03:28:03.497Z,38.20
2022-12-18T03:30:34.946Z,42.80
2022-12-18T03:33:09.785Z,38.70
2022-12-18T03:35:42.871Z,59.50
2022-12-18T03:38:11.797Z,55.00
2022-12-18T03:40:48.840Z,47.30
2022-12-18T03:43:38.652Z,42.90
2022-12-18T03:46:14.641Z,38.40
2022-12-18T03:48:53.811Z,38.20
2022-12-18T03:51:29.469Z,38.30
2022-12-18T03:54:01.295Z,30.80
2022-12-18T03:56:32.945Z,42.20
2022-12-18T03:59:02.492Z,44.60
2022-12-18T04:01:38.431Z,39.90
2022-12-18T04:04:07.866Z,41.70
2022-12-18T04:06:36.499Z,37.60
2022-12-18T04:09:06.449Z,40.40
2022-12-18T04:11:34.431Z,30.20
2022-12-18T04:14:05.971Z,39.20
2022-12-18T04:16:35.111Z,33.30
2022-12-18T04:19:02.889Z,39.90
2022-12-18T04:21:31.000Z,58.10
2022-12-18T04:23:58.894Z,55.80
2022-12-18T04:26:26.538Z,43.10
2022-12-18T04:28:54.075Z,42.60
2022-12-18T04:31:21.787Z,38.80
2022-12-18T04:33:49.471Z,37.20
2022-12-18T04:36:17.468Z,33.00
2022-12-18T04:38:45.348Z,35.40
2022-12-18T04:41:12.907Z,51.20
2022-12-18T04:43:40.816Z,58.30
2022-12-18T04:46:09.782Z,53.30
2022-12-18T04:48:38.282Z,40.20
2022-12-18T04:51:07.072Z,50.90
2022-12-18T04:53:34.977Z,45.40
2022-12-18T04:56:07.524Z,38.50
2022-12-18T04:58:36.315Z,46.80
2022-12-18T05:01:04.806Z,37.80
2022-12-18T05:03:32.580Z,58.00
2022-12-18T05:06:00.384Z,53.80
2022-12-18T05:08:27.976Z,60.60
2022-12-18T05:11:10.585Z,45.20
2022-12-18T05:13:39.505Z,49.20
2022-12-18T05:16:08.817Z,47.40
2022-12-18T05:18:37.664Z,53.30
2022-12-18T05:21:05.531Z,34.70
2022-12-18T05:23:33.326Z,61.10
2022-12-18T05:26:03.301Z,46.80
2022-12-18T05:28:32.952Z,38.10
2022-12-18T05:31:03.045Z,46.20
2022-12-18T05:33:34.002Z,52.30
2022-12-18T05:36:03.779Z,44.60
2022-12-18T05:38:33.080Z,39.10
2022-12-18T05:41:01.170Z,40.10
2022-12-18T05:43:29.614Z,43.00
2022-12-18T05:45:57.665Z,57.90
2022-12-18T05:48:25.272Z,53.10
2022-12-18T05:50:53.053Z,58.20
2022-12-18T05:53:21.440Z,55.50
2022-12-18T05:55:49.241Z,44.20
2022-12-18T05:58:17.420Z,44.40
2022-12-18T06:00:46.761Z,52.10
2022-12-18T06:03:15.054Z,53.30
2022-12-18T06:05:45.453Z,47.50
2022-12-18T06:08:14.241Z,46.50
2022-12-18T06:10:42.719Z,72.30
2022-12-18T06:13:10.594Z,61.60
2022-12-18T06:15:38.580Z,53.70
2022-12-18T06:18:06.253Z,53.90
2022-12-18T06:20:34.288Z,53.10
2022-12-18T06:23:01.975Z,58.50
2022-12-18T06:25:29.749Z,53.30
2022-12-18T06:27:57.556Z,39.40
2022-12-18T06:30:25.747Z,61.60
2022-12-18T06:32:56.750Z,55.80
2022-12-18T06:35:24.989Z,53.60
2022-12-18T06:37:52.639Z,62.50
2022-12-18T06:40:20.712Z,67.00
2022-12-18T06:42:48.451Z,55.30
2022-12-18T06:45:16.425Z,50.20
2022-12-18T06:47:44.355Z,50.10
2022-12-18T06:50:12.551Z,49.50
2022-12-18T06:52:40.700Z,52.70
2022-12-18T06:55:09.004Z,51.40
2022-12-18T06:57:37.142Z,42.50
2022-12-18T07:00:07.020Z,64.30
2022-12-18T07:02:35.052Z,62.50
2022-12-18T07:05:07.602Z,90.30
2022-12-18T07:07:38.487Z,70.70
2022-12-18T07:10:06.341Z,60.30
2022-12-18T07:12:34.103Z,56.90
2022-12-18T07:15:02.249Z,53.90
2022-12-18T07:17:29.983Z,53.50
2022-12-18T07:19:57.799Z,51.80
2022-12-18T07:22:28.797Z,58.50
2022-12-18T07:27:24.284Z,56.40
2022-12-18T07:29:52.193Z,74.00
2022-12-18T07:32:19.832Z,62.90
2022-12-18T07:34:47.622Z,59.80
2022-12-18T07:37:15.522Z,59.40
2022-12-18T07:39:43.288Z,68.90
2022-12-18T07:42:11.030Z,69.00
2022-12-18T07:44:38.895Z,63.50
2022-12-18T07:47:10.498Z,62.70
2022-12-18T07:49:40.198Z,61.30
2022-12-18T07:52:08.105Z,57.00
2022-12-18T07:54:36.089Z,59.70
2022-12-18T07:57:07.443Z,60.90
2022-12-18T07:59:40.497Z,60.80
2022-12-18T08:02:08.533Z,57.70
2022-12-18T08:04:36.512Z,58.00
2022-12-18T08:07:04.497Z,57.40
2022-12-18T08:09:32.531Z,84.60
2022-12-18T08:12:00.369Z,68.20
2022-12-18T08:14:27.998Z,63.10
2022-12-18T08:16:55.679Z,55.60
2022-12-18T08:19:23.399Z,69.70
2022-12-18T08:21:51.185Z,64.20
2022-12-18T08:24:18.953Z,57.90
2022-12-18T08:27:06.686Z,52.70
2022-12-18T08:29:34.689Z,58.90
2022-12-18T08:32:02.683Z,55.40
2022-12-18T08:34:30.621Z,61.60
2022-12-18T08:36:58.818Z,57.90
2022-12-18T08:39:26.660Z,57.20
2022-12-18T08:41:54.336Z,53.60
2022-12-18T08:44:21.896Z,62.40
2022-12-18T08:46:50.326Z,60.40
2022-12-18T08:49:18.228Z,67.40
2022-12-18T08:51:46.035Z,53.40
2022-12-18T08:54:13.723Z,57.70
2022-12-18T08:56:41.291Z,64.20
2022-12-18T08:59:13.136Z,68.20
2022-12-18T09:01:46.270Z,67.30
2022-12-18T09:04:14.268Z,59.30
2022-12-18T09:06:41.963Z,64.60
2022-12-18T09:09:10.609Z,59.50
2022-12-18T09:11:38.485Z,57.00
2022-12-18T09:14:06.066Z,55.50
2022-12-18T09:16:34.524Z,57.70
2022-12-18T09:19:04.824Z,47.10
2022-12-18T09:21:37.084Z,53.40
2022-12-18T09:24:08.652Z,56.20
2022-12-18T09:26:37.040Z,51.80
2022-12-18T09:29:05.266Z,55.70
2022-12-18T09:31:33.035Z,52.40
2022-12-18T09:34:00.620Z,54.90
2022-12-18T09:36:28.594Z,54.90
2022-12-18T09:38:56.221Z,54.90
2022-12-18T09:41:46.193Z,55.30
2022-12-18T09:44:32.132Z,56.10
2022-12-18T09:47:18.284Z,60.90
2022-12-18T09:49:50.327Z,59.20
2022-12-18T09:52:42.999Z,45.70
2022-12-18T09:55:32.200Z,57.70
2022-12-18T09:58:10.648Z,53.00
2022-12-18T10:00:38.628Z,54.80
2022-12-18T10:03:16.905Z,47.20
2022-12-18T10:06:07.358Z,41.50
2022-12-18T10:08:55.617Z,49.70
2022-12-18T10:11:51.968Z,47.30
2022-12-18T10:14:33.583Z,39.70
2022-12-18T10:17:19.333Z,44.10
2022-12-18T10:20:20.161Z,39.40
2022-12-18T10:23:09.438Z,43.50
2022-12-18T10:28:16.392Z,39.80
2022-12-18T10:30:44.661Z,41.70
2022-12-18T10:33:17.508Z,36.60
2022-12-18T10:35:47.183Z,39.00
2022-12-18T10:38:14.724Z,43.60
2022-12-18T10:40:53.775Z,45.00
2022-12-18T10:43:36.084Z,47.40
2022-12-18T10:46:09.818Z,49.10
2022-12-18T10:48:58.673Z,43.10
2022-12-18T10:51:38.506Z,44.90
2022-12-18T10:54:16.681Z,46.30
2022-12-18T10:56:45.326Z,45.60
2022-12-18T10:59:17.396Z,49.30
2022-12-18T11:01:53.532Z,44.10
2022-12-18T11:04:24.676Z,41.50
2022-12-18T11:07:12.789Z,39.80
2022-12-18T11:09:41.656Z,44.10
2022-12-18T11:12:20.849Z,38.60
2022-12-18T11:14:51.697Z,47.00
2022-12-18T11:17:40.108Z,47.40
2022-12-18T11:20:40.914Z,43.00
2022-12-18T11:23:14.317Z,34.90
2022-12-18T11:25:52.879Z,36.20
2022-12-18T11:28:37.118Z,37.10
2022-12-18T11:31:27.314Z,32.70
2022-12-18T11:34:27.512Z,31.40
2022-12-18T11:36:48.877Z,29.30
2022-12-18T11:39:41.848Z,31.10
2022-12-18T11:42:23.262Z,35.60
2022-12-18T11:45:00.520Z,33.20
2022-12-18T11:47:51.916Z,36.70
2022-12-18T11:50:25.454Z,37.70
2022-12-18T11:52:57.501Z,33.90
2022-12-18T11:55:41.042Z,33.90
2022-12-18T11:58:14.527Z,32.50
2022-12-18T12:00:58.235Z,27.40
2022-12-18T12:03:41.236Z,35.90
2022-12-18T12:06:30.943Z,36.80
2022-12-18T12:09:19.075Z,55.00
2022-12-18T12:12:17.431Z,47.50
2022-12-18T12:15:04.936Z,40.80
2022-12-18T12:18:11.635Z,30.30
2022-12-18T12:21:03.992Z,36.00
2022-12-18T12:24:01.079Z,34.70
2022-12-18T12:26:39.959Z,30.20
2022-12-18T12:29:29.599Z,34.20
2022-12-18T12:32:18.568Z,29.50
2022-12-18T12:35:19.862Z,31.50
2022-12-18T12:37:56.164Z,30.00
2022-12-18T12:43:48.058Z,32.50
2022-12-18T12:46:22.852Z,31.30
2022-12-18T12:48:57.793Z,26.30
2022-12-18T12:51:34.644Z,34.20
2022-12-18T12:54:06.383Z,36.30
2022-12-18T12:56:47.984Z,26.90
2022-12-18T12:59:29.253Z,32.90
2022-12-18T13:02:18.817Z,28.20
2022-12-18T13:05:34.651Z,28.50
2022-12-18T13:08:11.448Z,28.70
2022-12-18T13:10:44.972Z,33.00
2022-12-18T13:13:18.289Z,33.50
2022-12-18T13:16:07.491Z,33.60
2022-12-18T13:18:36.221Z,28.60
2022-12-18T13:21:20.214Z,34.30
2022-12-18T13:23:47.850Z,34.10
2022-12-18T13:26:21.926Z,33.90
2022-12-18T13:28:55.312Z,33.50
2022-12-18T13:31:41.776Z,37.40
2022-12-18T13:34:28.397Z,32.40
2022-12-18T13:37:40.597Z,37.40
2022-12-18T13:40:45.628Z,31.30
2022-12-18T13:43:24.882Z,41.90
2022-12-18T13:46:01.619Z,36.30
2022-12-18T13:48:32.367Z,41.40
2022-12-18T13:51:00.563Z,37.20
2022-12-18T13:53:33.989Z,35.40
2022-12-18T13:56:03.668Z,32.40
2022-12-18T13:58:32.000Z,31.60
2022-12-18T14:00:59.782Z,29.80
2022-12-18T14:03:29.581Z,31.80
2022-12-18T14:06:02.144Z,28.90
2022-12-18T14:08:43.039Z,32.90
2022-12-18T14:11:23.301Z,36.80
2022-12-18T14:13:51.558Z,36.80
2022-12-18T14:16:19.416Z,37.60
2022-12-18T14:18:55.017Z,38.00
2022-12-18T14:21:27.598Z,38.90
2022-12-18T14:24:20.112Z,35.10
2022-12-18T14:26:50.521Z,45.00
2022-12-18T14:29:24.977Z,35.20
2022-12-18T14:32:17.755Z,48.50
2022-12-18T14:34:53.807Z,49.30
2022-12-18T14:37:26.918Z,52.60
2022-12-18T14:39:55.190Z,44.90
2022-12-18T14:42:23.561Z,51.10
2022-12-18T14:45:12.873Z,43.30
2022-12-18T14:47:38.895Z,52.30
2022-12-18T14:50:14.981Z,54.80
2022-12-18T14:52:42.639Z,63.60
2022-12-18T14:55:21.381Z,89.50
2022-12-18T14:57:55.873Z,102.80
2022-12-18T15:00:26.459Z,64.50
2022-12-18T15:02:56.505Z,57.90
2022-12-18T15:05:30.337Z,59.00
2022-12-18T15:08:00.560Z,42.90
2022-12-18T15:10:34.684Z,40.90
2022-12-18T15:13:02.712Z,53.40
2022-12-18T15:15:50.295Z,50.30
2022-12-18T15:18:43.052Z,58.70
2022-12-18T15:21:17.238Z,56.70
2022-12-18T15:23:45.057Z,60.80
2022-12-18T15:26:15.484Z,56.60
2022-12-18T15:28:49.935Z,71.20
2022-12-18T15:31:17.999Z,65.80
2022-12-18T15:34:02.213Z,54.00
2022-12-18T15:36:30.302Z,59.70
2022-12-18T15:39:04.206Z,60.80
2022-12-18T15:41:36.026Z,64.20
2022-12-18T15:44:24.084Z,67.90
2022-12-18T15:46:51.835Z,72.80
2022-12-18T15:49:19.764Z,67.70
2022-12-18T15:51:55.060Z,61.10
2022-12-18T15:54:23.526Z,68.30
2022-12-18T15:56:51.121Z,73.00
2022-12-18T15:59:21.310Z,69.70
2022-12-18T16:01:51.647Z,58.00
2022-12-18T16:04:22.152Z,62.30
2022-12-18T16:07:13.732Z,64.80
2022-12-18T16:09:40.029Z,67.60
2022-12-18T16:12:16.462Z,64.10
2022-12-18T16:14:44.388Z,66.00
2022-12-18T16:17:13.980Z,64.00
2022-12-18T16:19:41.795Z,57.90
2022-12-18T16:22:21.435Z,67.20
2022-12-18T16:24:49.914Z,59.50
2022-12-18T16:27:17.816Z,68.60
2022-12-18T16:29:46.072Z,70.60
2022-12-18T16:32:18.715Z,73.30
2022-12-18T16:34:47.366Z,72.60
2022-12-18T16:37:16.367Z,58.40
2022-12-18T16:39:44.773Z,66.50
2022-12-18T16:42:20.833Z,55.50
2022-12-18T16:44:50.418Z,57.10
2022-12-18T16:47:19.300Z,69.00
2022-12-18T16:49:46.874Z,60.70
2022-12-18T16:52:14.949Z,68.10
2022-12-18T16:54:42.900Z,75.40
2022-12-18T16:57:15.739Z,78.10
2022-12-18T16:59:43.759Z,75.80
2022-12-18T17:02:23.406Z,66.10
2022-12-18T17:04:57.503Z,66.60
2022-12-18T17:07:26.586Z,58.90
2022-12-18T17:09:54.674Z,63.10
2022-12-18T17:12:22.514Z,55.20
2022-12-18T17:14:50.598Z,74.60
2022-12-18T17:17:21.885Z,59.40
2022-12-18T17:19:51.642Z,76.50
2022-12-18T17:22:20.919Z,65.60
2022-12-18T17:24:48.475Z,64.50
2022-12-18T17:27:16.419Z,68.00
2022-12-18T17:29:47.886Z,82.50
2022-12-18T17:32:17.261Z,85.70
2022-12-18T17:34:45.218Z,91.30
2022-12-18T17:37:13.393Z,96.90
2022-12-18T17:39:41.414Z,73.90
2022-12-18T17:42:09.013Z,88.60
2022-12-18T17:44:38.605Z,77.30
2022-12-18T17:47:07.196Z,74.50
2022-12-18T17:49:34.863Z,88.40
2022-12-18T17:52:02.425Z,77.40
2022-12-18T17:54:30.375Z,82.00
2022-12-18T17:56:57.932Z,84.10
2022-12-18T17:59:25.475Z,67.50
2022-12-18T18:01:53.221Z,80.60
2022-12-18T18:04:21.565Z,81.10
2022-12-18T18:06:49.209Z,79.80
2022-12-18T18:09:54.829Z,64.90
2022-12-18T18:13:00.308Z,68.10
2022-12-18T18:15:54.755Z,63.00
2022-12-18T18:18:22.751Z,61.70
2022-12-18T18:20:53.999Z,72.60
2022-12-18T18:23:22.137Z,69.60
2022-12-18T18:25:49.910Z,69.80
2022-12-18T18:28:17.800Z,82.80
2022-12-18T18:30:45.515Z,76.30
2022-12-18T18:33:13.161Z,77.90
2022-12-18T18:35:53.922Z,80.60
2022-12-18T18:38:22.043Z,69.00
2022-12-18T18:41:01.159Z,70.20
2022-12-18T18:43:29.827Z,62.60
2022-12-18T18:45:59.042Z,71.50
2022-12-18T18:48:28.757Z,74.40
2022-12-18T18:51:07.279Z,71.40
2022-12-18T18:53:40.220Z,75.80
2022-12-18T18:58:56.814Z,77.80
2022-12-18T19:01:25.840Z,74.90
2022-12-18T19:03:54.407Z,84.70
2022-12-18T19:06:25.497Z,82.50
2022-12-18T19:11:24.461Z,75.30
2022-12-18T19:13:52.876Z,72.60
2022-12-18T19:16:20.576Z,67.40
2022-12-18T19:18:50.437Z,68.90
2022-12-18T19:21:18.318Z,76.90
2022-12-18T19:23:45.870Z,64.90
2022-12-18T19:26:27.842Z,59.40
2022-12-18T19:29:07.122Z,64.90
2022-12-18T19:31:36.955Z,66.70
2022-12-18T19:34:06.413Z,66.20
2022-12-18T19:36:36.904Z,57.30
2022-12-18T19:39:15.945Z,62.80
2022-12-18T19:41:44.460Z,73.70
2022-12-18T19:44:14.770Z,59.20
2022-12-18T19:46:43.073Z,61.50
2022-12-18T19:49:11.977Z,61.10
2022-12-18T19:51:46.802Z,65.30
2022-12-18T19:54:17.241Z,58.30
2022-12-18T19:56:46.387Z,64.00
2022-12-18T19:59:15.656Z,68.20
2022-12-18T20:01:43.538Z,71.50
2022-12-18T20:04:11.604Z,60.00
2022-12-18T20:06:48.387Z,62.00
2022-12-18T20:09:17.039Z,66.30
2022-12-18T20:11:45.772Z,54.50
2022-12-18T20:14:18.753Z,57.80
2022-12-18T20:16:51.869Z,64.60
2022-12-18T20:19:20.758Z,58.60
2022-12-18T20:21:48.715Z,61.50
2022-12-18T20:24:16.690Z,69.10
2022-12-18T20:26:44.450Z,66.20
2022-12-18T20:29:12.020Z,71.90
2022-12-18T20:31:40.319Z,66.90
2022-12-18T20:34:08.296Z,64.60
2022-12-18T20:36:37.672Z,62.80
2022-12-18T20:39:09.847Z,65.10
2022-12-18T20:41:39.331Z,57.70
2022-12-18T20:44:23.090Z,67.00
2022-12-18T20:46:54.341Z,55.90
2022-12-18T20:49:23.613Z,60.80
2022-12-18T20:51:55.746Z,61.70
2022-12-18T20:54:26.460Z,65.90
2022-12-18T20:56:54.795Z,67.80
2022-12-18T20:59:23.263Z,58.30
2022-12-18T21:01:51.722Z,56.20
2022-12-18T21:04:19.923Z,64.10
2022-12-18T21:06:52.334Z,49.40
2022-12-18T21:09:23.869Z,72.90
2022-12-18T21:11:51.621Z,54.20
2022-12-18T21:14:25.961Z,62.20
2022-12-18T21:16:54.558Z,60.50
2022-12-18T21:19:25.092Z,68.50
2022-12-18T21:21:54.571Z,57.70
2022-12-18T21:24:22.905Z,64.20
2022-12-18T21:26:51.756Z,71.40
2022-12-18T21:29:22.887Z,55.50
2022-12-18T21:31:53.948Z,57.40
2022-12-18T21:34:26.975Z,56.70
2022-12-18T21:36:58.103Z,61.30
2022-12-18T21:39:29.148Z,72.20
2022-12-18T21:41:57.684Z,79.90
2022-12-18T21:44:25.910Z,68.20
2022-12-18T21:46:59.807Z,68.70
2022-12-18T21:49:31.554Z,65.50
2022-12-18T21:52:00.616Z,71.80
2022-12-18T21:54:29.428Z,61.10
2022-12-18T21:56:59.272Z,48.80
2022-12-18T21:59:36.505Z,48.30
2022-12-18T22:02:07.519Z,56.80
2022-12-18T22:04:35.455Z,63.30
2022-12-18T22:07:05.329Z,65.40
2022-12-18T22:09:33.783Z,57.60
2022-12-18T22:12:02.393Z,65.70
2022-12-18T22:14:29.922Z,53.20
2022-12-18T22:16:57.722Z,51.70
2022-12-18T22:19:26.409Z,64.80
2022-12-18T22:21:55.023Z,70.10
2022-12-18T22:24:25.380Z,62.00
2022-12-18T22:26:54.847Z,55.30
2022-12-18T22:29:30.017Z,46.30
2022-12-18T22:31:59.919Z,48.30
2022-12-18T22:34:28.040Z,46.20
2022-12-18T22:36:55.968Z,57.90
2022-12-18T22:39:27.275Z,60.90
2022-12-18T22:41:57.824Z,53.30
2022-12-18T22:44:25.452Z,38.30
2022-12-18T22:47:05.425Z,42.20
2022-12-18T22:49:35.871Z,50.90
2022-12-18T22:52:06.213Z,43.80
2022-12-18T22:54:34.254Z,42.40
2022-12-18T22:57:02.140Z,50.40
2022-12-18T22:59:30.992Z,46.00
2022-12-18T23:01:59.592Z,40.80
2022-12-18T23:04:27.967Z,46.00
2022-12-18T23:06:58.765Z,45.30
2022-12-18T23:09:26.508Z,39.30
2022-12-18T23:11:54.289Z,45.90
2022-12-18T23:14:22.478Z,49.40
2022-12-18T23:16:50.767Z,40.60
2022-12-18T23:19:23.431Z,42.60
2022-12-18T23:21:51.811Z,44.50
2022-12-18T23:24:22.204Z,44.20
2022-12-18T23:26:49.758Z,46.60
2022-12-18T23:29:17.345Z,42.90
2022-12-18T23:31:45.224Z,44.20
2022-12-18T23:34:14.579Z,49.90
2022-12-18T23:36:46.251Z,47.30
2022-12-18T23:39:28.608Z,54.20
2022-12-18T23:42:00.713Z,40.40
2022-12-18T23:44:28.503Z,56.10
2022-12-18T23:46:56.138Z,43.80
2022-12-18T23:49:24.077Z,46.00
2022-12-18T23:51:54.213Z,43.40
2022-12-18T23:54:22.410Z,46.80
2022-12-18T23:56:55.354Z,43.40
2022-12-18T23:59:25.577Z,43.50
